logo
Search for airport 
image banner adimage banner adimage banner ad
image banner ad

YCAL - Castlemaine Airport

Located in Yapeen, Australia

ICAO - YCAL, IATA -

Data provided by Airmate  

General information

Coordinates: S37°8'3" E144°9'30"
Elevation is 965 feet MSL.
Magnetic variation is 11° East
View others Airports in (unassigned)

Operational data

Special qualification required
Current time UTC:
Current local time:
Weather at : - ( 0 km )
METAR: KSHV 191607Z 31006KT 7SM BKN009 OVC014 24/20 A3006
View NOTAMs / SUP AIP / TFR affecting this airport [VIEW]
Communications frequencies: [VIEW]

Runways:

RWY identifierQFULength (ft)Width (ft)SurfaceLDA (ft)
18189°175827DIRT
36175827DIRT
27278°287319DIRT
0998°287319DIRT

Airport contact information

Address: Yapeen Australia

Satellite view of YCAL